sensor_id;sensor_type;location;lat;lon;timestamp;temperature;humidity
21744;DHT22;11034;48.556;9.342;2022-10-16T00:01:41;15.10;99.90
21744;DHT22;11034;48.556;9.342;2022-10-16T00:04:11;15.10;99.90
21744;DHT22;11034;48.556;9.342;2022-10-16T00:06:40;15.00;99.90
21744;DHT22;11034;48.556;9.342;2022-10-16T00:09:11;15.00;99.90
21744;DHT22;11034;48.556;9.342;2022-10-16T00:11:44;15.00;99.90
21744;DHT22;11034;48.556;9.342;2022-10-16T00:14:14;14.90;99.90
21744;DHT22;11034;48.556;9.342;2022-10-16T00:16:44;14.90;99.90
21744;DHT22;11034;48.556;9.342;2022-10-16T00:19:16;14.90;99.90
21744;DHT22;11034;48.556;9.342;2022-10-16T00:21:45;14.90;99.90
21744;DHT22;11034;48.556;9.342;2022-10-16T00:24:14;14.90;99.90
21744;DHT22;11034;48.556;9.342;2022-10-16T00:26:56;14.90;99.90
21744;DHT22;11034;48.556;9.342;2022-10-16T00:29:27;14.90;99.90
21744;DHT22;11034;48.556;9.342;2022-10-16T00:31:56;14.80;99.90
21744;DHT22;11034;48.556;9.342;2022-10-16T00:34:24;14.80;99.90
21744;DHT22;11034;48.556;9.342;2022-10-16T00:36:55;14.70;99.90
21744;DHT22;11034;48.556;9.342;2022-10-16T00:39:23;14.70;99.90
21744;DHT22;11034;48.556;9.342;2022-10-16T00:41:56;14.70;99.90
21744;DHT22;11034;48.556;9.342;2022-10-16T00:44:46;14.70;99.90
21744;DHT22;11034;48.556;9.342;2022-10-16T00:47:24;14.60;99.90
21744;DHT22;11034;48.556;9.342;2022-10-16T00:49:56;14.60;99.90
21744;DHT22;11034;48.556;9.342;2022-10-16T00:52:26;14.60;99.90
21744;DHT22;11034;48.556;9.342;2022-10-16T00:54:55;14.60;99.90
21744;DHT22;11034;48.556;9.342;2022-10-16T00:57:25;14.60;99.90
21744;DHT22;11034;48.556;9.342;2022-10-16T00:59:54;14.60;99.90
21744;DHT22;11034;48.556;9.342;2022-10-16T01:02:22;14.60;99.90
21744;DHT22;11034;48.556;9.342;2022-10-16T01:04:52;14.60;99.90
21744;DHT22;11034;48.556;9.342;2022-10-16T01:07:30;14.60;99.90
21744;DHT22;11034;48.556;9.342;2022-10-16T01:10:09;14.60;99.90
21744;DHT22;11034;48.556;9.342;2022-10-16T01:12:47;14.60;99.90
21744;DHT22;11034;48.556;9.342;2022-10-16T01:15:23;14.70;99.90
21744;DHT22;11034;48.556;9.342;2022-10-16T01:18:00;14.70;99.90
21744;DHT22;11034;48.556;9.342;2022-10-16T01:20:31;14.70;99.90
21744;DHT22;11034;48.556;9.342;2022-10-16T01:23:15;14.70;99.90
21744;DHT22;11034;48.556;9.342;2022-10-16T01:25:58;14.70;99.90
21744;DHT22;11034;48.556;9.342;2022-10-16T01:28:34;14.80;99.90
21744;DHT22;11034;48.556;9.342;2022-10-16T01:31:04;14.80;99.90
21744;DHT22;11034;48.556;9.342;2022-10-16T01:33:37;14.80;99.90
21744;DHT22;11034;48.556;9.342;2022-10-16T01:36:14;14.80;99.90
21744;DHT22;11034;48.556;9.342;2022-10-16T01:38:44;14.80;99.90
21744;DHT22;11034;48.556;9.342;2022-10-16T01:41:17;14.90;99.90
21744;DHT22;11034;48.556;9.342;2022-10-16T01:43:50;14.90;99.90
21744;DHT22;11034;48.556;9.342;2022-10-16T01:46:23;14.80;99.90
21744;DHT22;11034;48.556;9.342;2022-10-16T01:48:52;14.70;99.90
21744;DHT22;11034;48.556;9.342;2022-10-16T01:51:23;14.70;99.90
21744;DHT22;11034;48.556;9.342;2022-10-16T01:53:56;14.80;99.90
21744;DHT22;11034;48.556;9.342;2022-10-16T01:56:26;14.90;99.90
21744;DHT22;11034;48.556;9.342;2022-10-16T01:58:58;14.90;99.90
21744;DHT22;11034;48.556;9.342;2022-10-16T02:01:32;15.00;99.90
21744;DHT22;11034;48.556;9.342;2022-10-16T02:04:09;15.00;99.90
21744;DHT22;11034;48.556;9.342;2022-10-16T02:06:39;15.00;99.90
21744;DHT22;11034;48.556;9.342;2022-10-16T02:09:07;15.10;99.90
21744;DHT22;11034;48.556;9.342;2022-10-16T02:11:35;15.10;99.90
21744;DHT22;11034;48.556;9.342;2022-10-16T02:14:06;15.10;99.90
21744;DHT22;11034;48.556;9.342;2022-10-16T02:16:37;15.10;99.90
21744;DHT22;11034;48.556;9.342;2022-10-16T02:19:06;15.20;99.90
21744;DHT22;11034;48.556;9.342;2022-10-16T02:21:39;15.20;99.90
21744;DHT22;11034;48.556;9.342;2022-10-16T02:24:11;15.10;99.90
21744;DHT22;11034;48.556;9.342;2022-10-16T02:26:45;15.20;99.90
21744;DHT22;11034;48.556;9.342;2022-10-16T02:29:18;15.20;99.90
21744;DHT22;11034;48.556;9.342;2022-10-16T02:31:55;15.20;99.90
21744;DHT22;11034;48.556;9.342;2022-10-16T02:34:27;15.20;99.90
21744;DHT22;11034;48.556;9.342;2022-10-16T02:36:59;15.20;99.90
21744;DHT22;11034;48.556;9.342;2022-10-16T02:39:29;15.20;99.90
21744;DHT22;11034;48.556;9.342;2022-10-16T02:42:01;15.20;99.90
21744;DHT22;11034;48.556;9.342;2022-10-16T02:44:31;15.20;99.90
21744;DHT22;11034;48.556;9.342;2022-10-16T02:47:01;15.20;99.90
21744;DHT22;11034;48.556;9.342;2022-10-16T02:49:31;15.20;99.90
21744;DHT22;11034;48.556;9.342;2022-10-16T02:51:59;15.30;99.90
21744;DHT22;11034;48.556;9.342;2022-10-16T02:54:29;15.30;99.90
21744;DHT22;11034;48.556;9.342;2022-10-16T02:56:58;15.30;99.90
21744;DHT22;11034;48.556;9.342;2022-10-16T02:59:26;15.30;99.90
21744;DHT22;11034;48.556;9.342;2022-10-16T03:01:56;15.30;99.90
21744;DHT22;11034;48.556;9.342;2022-10-16T03:04:24;15.20;99.90
21744;DHT22;11034;48.556;9.342;2022-10-16T03:06:52;15.20;99.90
21744;DHT22;11034;48.556;9.342;2022-10-16T03:09:21;15.20;99.90
21744;DHT22;11034;48.556;9.342;2022-10-16T03:11:50;15.20;99.90
21744;DHT22;11034;48.556;9.342;2022-10-16T03:14:18;15.20;99.90
21744;DHT22;11034;48.556;9.342;2022-10-16T03:16:47;15.20;99.90
21744;DHT22;11034;48.556;9.342;2022-10-16T03:19:17;15.20;99.90
21744;DHT22;11034;48.556;9.342;2022-10-16T03:21:45;15.20;99.90
21744;DHT22;11034;48.556;9.342;2022-10-16T03:24:14;15.40;99.90
21744;DHT22;11034;48.556;9.342;2022-10-16T03:26:42;15.30;99.90
21744;DHT22;11034;48.556;9.342;2022-10-16T03:29:13;15.30;99.90
21744;DHT22;11034;48.556;9.342;2022-10-16T03:31:41;15.20;99.90
21744;DHT22;11034;48.556;9.342;2022-10-16T03:34:09;15.20;99.90
21744;DHT22;11034;48.556;9.342;2022-10-16T03:36:38;15.20;99.90
21744;DHT22;11034;48.556;9.342;2022-10-16T03:39:06;15.20;99.90
21744;DHT22;11034;48.556;9.342;2022-10-16T03:41:36;15.20;99.90
21744;DHT22;11034;48.556;9.342;2022-10-16T03:44:07;15.30;99.90
21744;DHT22;11034;48.556;9.342;2022-10-16T03:46:35;15.40;99.90
21744;DHT22;11034;48.556;9.342;2022-10-16T03:49:03;15.40;99.90
21744;DHT22;11034;48.556;9.342;2022-10-16T03:51:35;15.40;99.90
21744;DHT22;11034;48.556;9.342;2022-10-16T03:54:05;15.40;99.90
21744;DHT22;11034;48.556;9.342;2022-10-16T03:56:33;15.30;99.90
21744;DHT22;11034;48.556;9.342;2022-10-16T03:59:01;15.30;99.90
21744;DHT22;11034;48.556;9.342;2022-10-16T04:01:30;15.20;99.90
21744;DHT22;11034;48.556;9.342;2022-10-16T04:03:58;15.20;99.90
21744;DHT22;11034;48.556;9.342;2022-10-16T04:06:26;15.20;99.90
21744;DHT22;11034;48.556;9.342;2022-10-16T04:08:54;15.20;99.90
21744;DHT22;11034;48.556;9.342;2022-10-16T04:11:24;15.20;99.90
21744;DHT22;11034;48.556;9.342;2022-10-16T04:13:53;15.20;99.90
21744;DHT22;11034;48.556;9.342;2022-10-16T04:16:21;15.30;99.90
21744;DHT22;11034;48.556;9.342;2022-10-16T04:18:50;15.30;99.90
21744;DHT22;11034;48.556;9.342;2022-10-16T04:21:18;15.30;99.90
21744;DHT22;11034;48.556;9.342;2022-10-16T04:23:46;15.30;99.90
21744;DHT22;11034;48.556;9.342;2022-10-16T04:26:16;15.30;99.90
21744;DHT22;11034;48.556;9.342;2022-10-16T04:28:45;15.30;99.90
21744;DHT22;11034;48.556;9.342;2022-10-16T04:31:13;15.30;99.90
21744;DHT22;11034;48.556;9.342;2022-10-16T04:33:44;15.30;99.90
21744;DHT22;11034;48.556;9.342;2022-10-16T04:36:13;15.30;99.90
21744;DHT22;11034;48.556;9.342;2022-10-16T04:38:44;15.30;99.90
21744;DHT22;11034;48.556;9.342;2022-10-16T04:41:14;15.30;99.90
21744;DHT22;11034;48.556;9.342;2022-10-16T04:43:44;15.20;99.90
21744;DHT22;11034;48.556;9.342;2022-10-16T04:46:12;15.30;99.90
21744;DHT22;11034;48.556;9.342;2022-10-16T04:48:40;15.30;99.90
21744;DHT22;11034;48.556;9.342;2022-10-16T04:51:08;15.20;99.90
21744;DHT22;11034;48.556;9.342;2022-10-16T04:53:41;15.30;99.90
21744;DHT22;11034;48.556;9.342;2022-10-16T06:01:19;15.30;99.90
21744;DHT22;11034;48.556;9.342;2022-10-16T06:03:53;15.30;99.90
21744;DHT22;11034;48.556;9.342;2022-10-16T06:06:26;15.40;99.90
21744;DHT22;11034;48.556;9.342;2022-10-16T06:08:55;15.40;99.90
21744;DHT22;11034;48.556;9.342;2022-10-16T06:11:26;15.50;99.90
21744;DHT22;11034;48.556;9.342;2022-10-16T06:13:58;15.60;99.90
21744;DHT22;11034;48.556;9.342;2022-10-16T06:16:29;15.70;99.90
21744;DHT22;11034;48.556;9.342;2022-10-16T06:18:57;15.70;99.90
21744;DHT22;11034;48.556;9.342;2022-10-16T06:21:27;15.80;99.90
21744;DHT22;11034;48.556;9.342;2022-10-16T06:23:56;15.90;99.90
21744;DHT22;11034;48.556;9.342;2022-10-16T06:26:27;15.90;99.90
21744;DHT22;11034;48.556;9.342;2022-10-16T06:28:58;15.90;99.90
21744;DHT22;11034;48.556;9.342;2022-10-16T06:31:29;16.00;99.90
21744;DHT22;11034;48.556;9.342;2022-10-16T06:34:00;16.00;99.90
21744;DHT22;11034;48.556;9.342;2022-10-16T06:36:28;16.00;99.90
21744;DHT22;11034;48.556;9.342;2022-10-16T06:38:57;16.00;99.90
21744;DHT22;11034;48.556;9.342;2022-10-16T06:41:25;16.00;99.90
21744;DHT22;11034;48.556;9.342;2022-10-16T06:43:53;16.00;99.90
21744;DHT22;11034;48.556;9.342;2022-10-16T06:50:06;16.30;99.90
21744;DHT22;11034;48.556;9.342;2022-10-16T06:55:32;16.50;99.90
21744;DHT22;11034;48.556;9.342;2022-10-16T06:58:28;16.60;99.90
21744;DHT22;11034;48.556;9.342;2022-10-16T07:01:15;16.70;99.90
21744;DHT22;11034;48.556;9.342;2022-10-16T07:03:44;16.80;99.90
21744;DHT22;11034;48.556;9.342;2022-10-16T07:06:17;16.90;99.90
21744;DHT22;11034;48.556;9.342;2022-10-16T07:08:49;16.90;99.90
21744;DHT22;11034;48.556;9.342;2022-10-16T07:11:22;16.90;99.90
21744;DHT22;11034;48.556;9.342;2022-10-16T07:13:52;16.80;99.90
21744;DHT22;11034;48.556;9.342;2022-10-16T07:16:32;16.80;99.90
21744;DHT22;11034;48.556;9.342;2022-10-16T07:19:02;16.70;99.90
21744;DHT22;11034;48.556;9.342;2022-10-16T07:21:33;16.70;99.90
21744;DHT22;11034;48.556;9.342;2022-10-16T07:24:05;16.80;99.90
21744;DHT22;11034;48.556;9.342;2022-10-16T07:26:35;16.80;99.90
21744;DHT22;11034;48.556;9.342;2022-10-16T07:29:03;16.80;99.90
21744;DHT22;11034;48.556;9.342;2022-10-16T07:31:33;16.90;99.90
21744;DHT22;11034;48.556;9.342;2022-10-16T07:34:04;17.00;99.90
21744;DHT22;11034;48.556;9.342;2022-10-16T07:36:33;17.00;99.90
21744;DHT22;11034;48.556;9.342;2022-10-16T07:39:02;17.10;99.90
21744;DHT22;11034;48.556;9.342;2022-10-16T07:41:31;17.10;99.90
21744;DHT22;11034;48.556;9.342;2022-10-16T07:44:03;17.10;99.90
21744;DHT22;11034;48.556;9.342;2022-10-16T07:46:35;17.10;99.90
21744;DHT22;11034;48.556;9.342;2022-10-16T07:49:03;17.10;99.90
21744;DHT22;11034;48.556;9.342;2022-10-16T07:51:33;17.20;99.90
21744;DHT22;11034;48.556;9.342;2022-10-16T07:54:01;17.30;99.90
21744;DHT22;11034;48.556;9.342;2022-10-16T07:56:34;17.40;99.90
21744;DHT22;11034;48.556;9.342;2022-10-16T07:59:08;17.40;99.90
21744;DHT22;11034;48.556;9.342;2022-10-16T08:01:36;17.50;99.90
21744;DHT22;11034;48.556;9.342;2022-10-16T08:04:08;17.60;99.90
21744;DHT22;11034;48.556;9.342;2022-10-16T08:06:41;17.70;99.90
21744;DHT22;11034;48.556;9.342;2022-10-16T08:09:12;17.80;99.90
21744;DHT22;11034;48.556;9.342;2022-10-16T08:11:42;17.90;99.90
21744;DHT22;11034;48.556;9.342;2022-10-16T08:14:13;18.00;99.90
21744;DHT22;11034;48.556;9.342;2022-10-16T08:16:41;18.10;99.90
21744;DHT22;11034;48.556;9.342;2022-10-16T08:19:16;18.20;99.90
21744;DHT22;11034;48.556;9.342;2022-10-16T08:21:47;18.10;99.90
21744;DHT22;11034;48.556;9.342;2022-10-16T08:24:18;18.10;99.90
21744;DHT22;11034;48.556;9.342;2022-10-16T08:26:46;18.10;99.90
21744;DHT22;11034;48.556;9.342;2022-10-16T08:29:17;18.20;99.90
21744;DHT22;11034;48.556;9.342;2022-10-16T08:31:45;18.30;99.90
21744;DHT22;11034;48.556;9.342;2022-10-16T08:34:17;18.40;99.90
21744;DHT22;11034;48.556;9.342;2022-10-16T08:36:48;18.60;99.90
21744;DHT22;11034;48.556;9.342;2022-10-16T08:39:24;18.70;99.90
21744;DHT22;11034;48.556;9.342;2022-10-16T08:42:31;18.90;99.90
21744;DHT22;11034;48.556;9.342;2022-10-16T08:45:28;19.10;99.90
21744;DHT22;11034;48.556;9.342;2022-10-16T08:48:20;19.30;99.90
21744;DHT22;11034;48.556;9.342;2022-10-16T08:50:54;19.60;99.90
21744;DHT22;11034;48.556;9.342;2022-10-16T08:53:30;19.60;99.90
21744;DHT22;11034;48.556;9.342;2022-10-16T09:03:28;20.00;99.90
21744;DHT22;11034;48.556;9.342;2022-10-16T09:06:08;19.90;99.90
21744;DHT22;11034;48.556;9.342;2022-10-16T09:09:10;19.80;99.90
21744;DHT22;11034;48.556;9.342;2022-10-16T09:11:45;19.70;99.90
21744;DHT22;11034;48.556;9.342;2022-10-16T09:14:29;19.60;99.90
21744;DHT22;11034;48.556;9.342;2022-10-16T09:17:16;19.60;99.90
21744;DHT22;11034;48.556;9.342;2022-10-16T09:19:53;19.50;99.90
21744;DHT22;11034;48.556;9.342;2022-10-16T09:22:27;19.60;99.90
21744;DHT22;11034;48.556;9.342;2022-10-16T09:25:00;19.80;99.90
21744;DHT22;11034;48.556;9.342;2022-10-16T09:27:29;19.80;99.90
21744;DHT22;11034;48.556;9.342;2022-10-16T09:29:57;20.00;99.90
21744;DHT22;11034;48.556;9.342;2022-10-16T09:32:28;20.30;99.90
21744;DHT22;11034;48.556;9.342;2022-10-16T09:34:56;20.60;99.90
21744;DHT22;11034;48.556;9.342;2022-10-16T09:37:25;20.60;99.90
21744;DHT22;11034;48.556;9.342;2022-10-16T09:39:55;20.50;99.90
21744;DHT22;11034;48.556;9.342;2022-10-16T09:42:30;20.60;99.90
21744;DHT22;11034;48.556;9.342;2022-10-16T09:44:59;20.30;99.90
21744;DHT22;11034;48.556;9.342;2022-10-16T09:47:28;20.40;99.90
21744;DHT22;11034;48.556;9.342;2022-10-16T09:50:24;20.40;99.90
21744;DHT22;11034;48.556;9.342;2022-10-16T09:53:10;20.20;99.90
21744;DHT22;11034;48.556;9.342;2022-10-16T09:55:48;20.40;99.90
21744;DHT22;11034;48.556;9.342;2022-10-16T09:58:23;20.40;99.90
21744;DHT22;11034;48.556;9.342;2022-10-16T10:00:55;20.50;99.90
21744;DHT22;11034;48.556;9.342;2022-10-16T10:04:04;20.50;99.90
21744;DHT22;11034;48.556;9.342;2022-10-16T10:06:34;20.50;99.90
21744;DHT22;11034;48.556;9.342;2022-10-16T10:09:38;20.40;99.90
21744;DHT22;11034;48.556;9.342;2022-10-16T10:12:18;20.30;99.90
21744;DHT22;11034;48.556;9.342;2022-10-16T10:14:56;20.20;99.90
21744;DHT22;11034;48.556;9.342;2022-10-16T10:17:26;20.20;99.90
21744;DHT22;11034;48.556;9.342;2022-10-16T10:19:57;20.20;99.90
21744;DHT22;11034;48.556;9.342;2022-10-16T10:22:31;20.20;99.90
21744;DHT22;11034;48.556;9.342;2022-10-16T10:25:15;20.10;99.90
21744;DHT22;11034;48.556;9.342;2022-10-16T10:30:53;19.90;99.90
21744;DHT22;11034;48.556;9.342;2022-10-16T10:33:30;19.90;99.90
21744;DHT22;11034;48.556;9.342;2022-10-16T10:36:16;19.90;99.90
21744;DHT22;11034;48.556;9.342;2022-10-16T10:38:51;20.00;99.90
21744;DHT22;11034;48.556;9.342;2022-10-16T10:42:07;20.20;99.90
21744;DHT22;11034;48.556;9.342;2022-10-16T10:44:54;20.40;99.90
21744;DHT22;11034;48.556;9.342;2022-10-16T10:47:39;20.70;99.90
21744;DHT22;11034;48.556;9.342;2022-10-16T10:50:17;20.90;99.90
21744;DHT22;11034;48.556;9.342;2022-10-16T10:53:24;21.10;99.90
21744;DHT22;11034;48.556;9.342;2022-10-16T10:56:39;21.20;99.90
21744;DHT22;11034;48.556;9.342;2022-10-16T10:59:29;21.30;99.90
21744;DHT22;11034;48.556;9.342;2022-10-16T11:06:06;21.30;99.90
21744;DHT22;11034;48.556;9.342;2022-10-16T11:08:39;21.30;99.90
21744;DHT22;11034;48.556;9.342;2022-10-16T11:11:17;21.20;99.90
21744;DHT22;11034;48.556;9.342;2022-10-16T11:13:58;21.20;99.90
21744;DHT22;11034;48.556;9.342;2022-10-16T11:16:29;21.30;99.90
21744;DHT22;11034;48.556;9.342;2022-10-16T11:19:12;21.40;99.90
21744;DHT22;11034;48.556;9.342;2022-10-16T11:21:54;21.60;99.90
21744;DHT22;11034;48.556;9.342;2022-10-16T11:24:33;21.70;99.90
21744;DHT22;11034;48.556;9.342;2022-10-16T11:27:09;22.00;99.90
21744;DHT22;11034;48.556;9.342;2022-10-16T11:29:46;22.30;99.90
21744;DHT22;11034;48.556;9.342;2022-10-16T11:32:22;22.60;99.90
21744;DHT22;11034;48.556;9.342;2022-10-16T11:34:55;22.80;99.90
21744;DHT22;11034;48.556;9.342;2022-10-16T11:37:30;22.80;99.90
21744;DHT22;11034;48.556;9.342;2022-10-16T11:40:19;22.80;99.90
21744;DHT22;11034;48.556;9.342;2022-10-16T11:42:57;22.90;99.90
21744;DHT22;11034;48.556;9.342;2022-10-16T11:49:16;23.00;99.90
21744;DHT22;11034;48.556;9.342;2022-10-16T11:51:53;22.90;99.90
21744;DHT22;11034;48.556;9.342;2022-10-16T11:54:30;22.90;99.90
21744;DHT22;11034;48.556;9.342;2022-10-16T11:57:11;22.80;99.90
21744;DHT22;11034;48.556;9.342;2022-10-16T11:59:45;22.60;99.90
21744;DHT22;11034;48.556;9.342;2022-10-16T12:02:38;22.60;99.90
21744;DHT22;11034;48.556;9.342;2022-10-16T12:05:19;22.50;99.90
21744;DHT22;11034;48.556;9.342;2022-10-16T12:07:52;22.50;99.90
21744;DHT22;11034;48.556;9.342;2022-10-16T12:10:27;22.40;99.90
21744;DHT22;11034;48.556;9.342;2022-10-16T12:12:55;22.40;99.90
21744;DHT22;11034;48.556;9.342;2022-10-16T12:15:26;22.40;99.90
21744;DHT22;11034;48.556;9.342;2022-10-16T12:18:21;22.50;99.90
21744;DHT22;11034;48.556;9.342;2022-10-16T12:20:55;22.40;99.90
21744;DHT22;11034;48.556;9.342;2022-10-16T12:23:25;22.40;99.90
21744;DHT22;11034;48.556;9.342;2022-10-16T12:25:59;22.40;99.90
21744;DHT22;11034;48.556;9.342;2022-10-16T12:28:30;22.30;99.90
21744;DHT22;11034;48.556;9.342;2022-10-16T12:31:00;22.30;99.90
21744;DHT22;11034;48.556;9.342;2022-10-16T12:33:30;22.30;99.90
21744;DHT22;11034;48.556;9.342;2022-10-16T12:36:01;22.30;99.90
21744;DHT22;11034;48.556;9.342;2022-10-16T12:38:36;22.30;99.90
21744;DHT22;11034;48.556;9.342;2022-10-16T12:41:08;22.40;99.90
21744;DHT22;11034;48.556;9.342;2022-10-16T12:43:39;22.40;99.90
21744;DHT22;11034;48.556;9.342;2022-10-16T12:46:35;22.40;99.90
21744;DHT22;11034;48.556;9.342;2022-10-16T12:49:14;22.40;99.90
21744;DHT22;11034;48.556;9.342;2022-10-16T12:51:47;22.40;99.90
21744;DHT22;11034;48.556;9.342;2022-10-16T12:54:19;22.50;99.90
21744;DHT22;11034;48.556;9.342;2022-10-16T12:57:06;22.50;99.90
21744;DHT22;11034;48.556;9.342;2022-10-16T12:59:42;22.50;99.90
21744;DHT22;11034;48.556;9.342;2022-10-16T13:02:34;22.50;99.90
21744;DHT22;11034;48.556;9.342;2022-10-16T13:05:19;22.50;99.90
21744;DHT22;11034;48.556;9.342;2022-10-16T13:07:59;22.50;99.90
21744;DHT22;11034;48.556;9.342;2022-10-16T13:10:35;22.60;99.90
21744;DHT22;11034;48.556;9.342;2022-10-16T13:13:29;22.80;99.90
21744;DHT22;11034;48.556;9.342;2022-10-16T13:16:10;23.10;99.90
21744;DHT22;11034;48.556;9.342;2022-10-16T13:18:48;23.30;99.90
21744;DHT22;11034;48.556;9.342;2022-10-16T13:21:25;23.40;99.90
21744;DHT22;11034;48.556;9.342;2022-10-16T13:24:03;23.40;99.90
21744;DHT22;11034;48.556;9.342;2022-10-16T13:26:40;23.30;99.90
21744;DHT22;11034;48.556;9.342;2022-10-16T13:29:29;23.20;99.90
21744;DHT22;11034;48.556;9.342;2022-10-16T13:32:07;23.10;99.90
21744;DHT22;11034;48.556;9.342;2022-10-16T13:34:44;23.00;99.90
21744;DHT22;11034;48.556;9.342;2022-10-16T13:37:20;22.90;99.90
21744;DHT22;11034;48.556;9.342;2022-10-16T13:39:50;22.80;99.90
21744;DHT22;11034;48.556;9.342;2022-10-16T13:42:23;22.70;99.90
21744;DHT22;11034;48.556;9.342;2022-10-16T13:44:56;22.60;99.90
21744;DHT22;11034;48.556;9.342;2022-10-16T13:47:25;22.60;99.90
21744;DHT22;11034;48.556;9.342;2022-10-16T13:50:01;22.50;99.90
21744;DHT22;11034;48.556;9.342;2022-10-16T13:52:29;22.40;99.90
21744;DHT22;11034;48.556;9.342;2022-10-16T13:54:57;22.40;99.90
21744;DHT22;11034;48.556;9.342;2022-10-16T13:57:28;22.40;99.90
21744;DHT22;11034;48.556;9.342;2022-10-16T13:59:57;22.40;99.90
21744;DHT22;11034;48.556;9.342;2022-10-16T14:02:29;22.30;99.90
21744;DHT22;11034;48.556;9.342;2022-10-16T14:04:59;22.30;99.90
21744;DHT22;11034;48.556;9.342;2022-10-16T14:07:28;22.30;99.90
21744;DHT22;11034;48.556;9.342;2022-10-16T14:10:02;22.30;99.90
21744;DHT22;11034;48.556;9.342;2022-10-16T14:12:31;22.40;99.90
21744;DHT22;11034;48.556;9.342;2022-10-16T14:15:02;22.40;99.90
21744;DHT22;11034;48.556;9.342;2022-10-16T14:17:32;22.40;99.90
21744;DHT22;11034;48.556;9.342;2022-10-16T14:20:04;22.40;99.90
21744;DHT22;11034;48.556;9.342;2022-10-16T14:22:35;22.40;99.90
21744;DHT22;11034;48.556;9.342;2022-10-16T14:25:28;22.40;99.90
21744;DHT22;11034;48.556;9.342;2022-10-16T14:28:00;22.40;99.90
21744;DHT22;11034;48.556;9.342;2022-10-16T14:30:31;22.40;99.90
21744;DHT22;11034;48.556;9.342;2022-10-16T14:33:02;22.40;99.90
21744;DHT22;11034;48.556;9.342;2022-10-16T14:35:32;22.40;99.90
21744;DHT22;11034;48.556;9.342;2022-10-16T14:38:02;22.40;99.90
21744;DHT22;11034;48.556;9.342;2022-10-16T14:40:31;22.30;99.90
21744;DHT22;11034;48.556;9.342;2022-10-16T14:43:00;22.30;99.90
21744;DHT22;11034;48.556;9.342;2022-10-16T14:45:32;22.40;99.90
21744;DHT22;11034;48.556;9.342;2022-10-16T14:48:02;22.40;99.90
21744;DHT22;11034;48.556;9.342;2022-10-16T14:50:34;22.40;99.90
21744;DHT22;11034;48.556;9.342;2022-10-16T14:53:08;22.30;99.90
21744;DHT22;11034;48.556;9.342;2022-10-16T14:55:39;22.20;99.90
21744;DHT22;11034;48.556;9.342;2022-10-16T14:58:11;22.00;99.90
21744;DHT22;11034;48.556;9.342;2022-10-16T15:00:42;21.90;99.90
21744;DHT22;11034;48.556;9.342;2022-10-16T15:03:10;21.70;99.90
21744;DHT22;11034;48.556;9.342;2022-10-16T15:05:38;21.50;99.90
21744;DHT22;11034;48.556;9.342;2022-10-16T15:08:06;21.40;99.90
21744;DHT22;11034;48.556;9.342;2022-10-16T15:10:38;21.30;99.90
21744;DHT22;11034;48.556;9.342;2022-10-16T15:13:11;21.20;99.90
21744;DHT22;11034;48.556;9.342;2022-10-16T15:15:44;21.10;99.90
21744;DHT22;11034;48.556;9.342;2022-10-16T15:18:13;21.00;99.90
21744;DHT22;11034;48.556;9.342;2022-10-16T15:20:49;20.90;99.90
21744;DHT22;11034;48.556;9.342;2022-10-16T15:23:20;20.80;99.90
21744;DHT22;11034;48.556;9.342;2022-10-16T15:25:50;20.70;99.90
21744;DHT22;11034;48.556;9.342;2022-10-16T15:28:18;20.60;99.90
21744;DHT22;11034;48.556;9.342;2022-10-16T15:30:49;20.50;99.90
21744;DHT22;11034;48.556;9.342;2022-10-16T15:33:23;20.50;99.90
21744;DHT22;11034;48.556;9.342;2022-10-16T15:35:55;20.40;99.90
21744;DHT22;11034;48.556;9.342;2022-10-16T15:38:23;20.40;99.90
21744;DHT22;11034;48.556;9.342;2022-10-16T15:40:52;20.40;99.90
21744;DHT22;11034;48.556;9.342;2022-10-16T15:43:20;20.30;99.90
21744;DHT22;11034;48.556;9.342;2022-10-16T15:45:59;20.30;99.90
21744;DHT22;11034;48.556;9.342;2022-10-16T15:48:28;20.30;99.90
21744;DHT22;11034;48.556;9.342;2022-10-16T15:51:05;20.10;99.90
21744;DHT22;11034;48.556;9.342;2022-10-16T15:53:33;20.00;99.90
21744;DHT22;11034;48.556;9.342;2022-10-16T15:56:02;20.00;99.90
21744;DHT22;11034;48.556;9.342;2022-10-16T15:58:31;19.90;99.90
21744;DHT22;11034;48.556;9.342;2022-10-16T16:01:03;19.80;99.90
21744;DHT22;11034;48.556;9.342;2022-10-16T16:03:31;19.70;99.90
21744;DHT22;11034;48.556;9.342;2022-10-16T16:06:04;19.60;99.90
21744;DHT22;11034;48.556;9.342;2022-10-16T16:08:33;19.50;99.90
21744;DHT22;11034;48.556;9.342;2022-10-16T16:11:03;19.40;99.90
21744;DHT22;11034;48.556;9.342;2022-10-16T16:13:31;19.40;99.90
21744;DHT22;11034;48.556;9.342;2022-10-16T16:16:01;19.30;99.90
21744;DHT22;11034;48.556;9.342;2022-10-16T16:18:35;19.40;99.90
21744;DHT22;11034;48.556;9.342;2022-10-16T16:21:03;19.30;99.90
21744;DHT22;11034;48.556;9.342;2022-10-16T16:23:32;19.30;99.90
21744;DHT22;11034;48.556;9.342;2022-10-16T16:26:04;19.30;99.90
21744;DHT22;11034;48.556;9.342;2022-10-16T16:28:32;19.30;99.90
21744;DHT22;11034;48.556;9.342;2022-10-16T16:31:02;19.20;99.90
21744;DHT22;11034;48.556;9.342;2022-10-16T16:33:30;19.00;99.90
21744;DHT22;11034;48.556;9.342;2022-10-16T16:35:59;19.00;99.90
21744;DHT22;11034;48.556;9.342;2022-10-16T16:38:28;18.90;99.90
21744;DHT22;11034;48.556;9.342;2022-10-16T16:40:56;18.80;99.90
21744;DHT22;11034;48.556;9.342;2022-10-16T16:43:25;18.90;99.90
21744;DHT22;11034;48.556;9.342;2022-10-16T16:45:53;18.90;99.90
21744;DHT22;11034;48.556;9.342;2022-10-16T16:48:23;18.80;99.90
21744;DHT22;11034;48.556;9.342;2022-10-16T16:50:52;18.70;99.90
21744;DHT22;11034;48.556;9.342;2022-10-16T16:53:20;18.60;99.90
21744;DHT22;11034;48.556;9.342;2022-10-16T16:55:48;18.60;99.90
21744;DHT22;11034;48.556;9.342;2022-10-16T16:58:16;18.50;99.90
21744;DHT22;11034;48.556;9.342;2022-10-16T17:00:45;18.40;99.90
21744;DHT22;11034;48.556;9.342;2022-10-16T17:03:33;18.50;99.90
21744;DHT22;11034;48.556;9.342;2022-10-16T17:06:07;18.50;99.90
21744;DHT22;11034;48.556;9.342;2022-10-16T17:08:36;18.60;99.90
21744;DHT22;11034;48.556;9.342;2022-10-16T17:11:17;18.50;99.90
21744;DHT22;11034;48.556;9.342;2022-10-16T17:13:46;18.50;99.90
21744;DHT22;11034;48.556;9.342;2022-10-16T17:16:24;18.50;99.90
21744;DHT22;11034;48.556;9.342;2022-10-16T17:18:59;18.60;99.90
21744;DHT22;11034;48.556;9.342;2022-10-16T17:21:31;18.60;99.90
21744;DHT22;11034;48.556;9.342;2022-10-16T17:24:07;18.60;99.90
21744;DHT22;11034;48.556;9.342;2022-10-16T17:26:40;18.60;99.90
21744;DHT22;11034;48.556;9.342;2022-10-16T17:29:12;18.60;99.90
21744;DHT22;11034;48.556;9.342;2022-10-16T17:31:41;18.60;99.90
21744;DHT22;11034;48.556;9.342;2022-10-16T17:34:12;18.70;99.90
21744;DHT22;11034;48.556;9.342;2022-10-16T17:36:40;18.70;99.90
21744;DHT22;11034;48.556;9.342;2022-10-16T17:39:14;18.70;99.90